Latest Weather Observations for Dunalley

IDT60801

Issued at 8:21 am EST Tuesday 17 September 2019 (issued every 10 minutes, with the page automatically refreshed every 10 minutes)

About weather observations | Map of weather stations | Latest weather observations for TAS | Other Formats
Station Details ID: 094254 Name: DUNALLEY (STROUD POINT) Lat: -42.90 Lon: 147.79 Height: 12.43 m
Data from the previous 72 hours. | See also: Recent months at Dunalley
Date/Time
EST
Temp
°C
App
Temp
°C
Dew
Point
°C
Rel
Hum
%
Delta-T
°C
Wind Press
QNH
hPa
Press
MSL
hPa
Rain since
9am
mm
Dir  Spd
km/h
Gust
km/h
Spd
kts
Gust
kts
17/08:00am 7.4 1.1 -1.0 55 3.2 NW 22 32 12 17 1026.1 1026.2 0.2
17/07:30am 6.8 1.1 -1.1 57 3.0 NW 19 30 10 16 1025.8 1025.9 0.2
17/07:00am 6.0 0.2 -1.6 58 2.8 NW 19 26 10 14 1025.4 1025.5 0.2
17/06:30am 5.0 -0.8 -1.4 63 2.3 NNW 19 26 10 14 1025.2 1025.3 0.2
17/06:00am 5.3 -0.5 -1.6 61 2.5 NW 19 33 10 18 1024.8 1024.9 0.2
17/05:30am 4.7 -1.1 -1.5 64 2.3 NW 19 24 10 13 1024.4 1024.5 0.2
17/05:00am 4.8 -1.0 -1.2 65 2.2 NNW 19 26 10 14 1024.2 1024.3 0.2
17/04:30am 4.7 -1.7 -1.5 64 2.3 WNW 22 30 12 16 1024.4 1024.5 0.2
17/04:00am 5.0 -1.7 -1.2 64 2.3 NW 24 32 13 17 1024.3 1024.4 0.2
17/03:30am 5.0 -2.1 -1.2 64 2.3 NW 26 33 14 18 1024.1 1024.2 0.2
17/03:00am 4.7 -1.7 -1.5 64 2.2 NW 22 32 12 17 1024.3 1024.4 0.2
17/02:30am 5.2 -0.6 -1.5 62 2.5 NW 19 33 10 18 1024.3 1024.4 0.2
17/02:00am 5.1 -1.6 -1.3 63 2.3 NW 24 32 13 17 1024.5 1024.6 0.2
17/01:30am 5.3 -1.4 -1.4 62 2.5 NW 24 37 13 20 1024.5 1024.6 0.2
17/01:00am 5.2 -0.8 -1.5 62 2.4 NW 20 30 11 16 1024.6 1024.7 0.2
17/12:30am 5.1 -0.7 -1.3 63 2.4 NW 19 24 10 13 1024.5 1024.6 0.2
17/12:00am 5.2 -1.2 -1.5 62 2.4 NW 22 28 12 15 1024.3 1024.4 0.2
 
Date/Time
EST
Temp
°C
App
Temp
°C
Dew
Point
°C
Rel
Hum
%
Delta-T
°C
Wind Press
QNH
hPa
Press
MSL
hPa
Rain since
9am
mm
Dir  Spd
km/h
Gust
km/h
Spd
kts
Gust
kts
16/11:30pm 5.5 -1.6 -1.6 60 2.6 WNW 26 32 14 17 1024.0 1024.1 0.2
16/11:00pm 5.0 -0.9 -1.9 61 2.5 WNW 19 28 10 15 1024.0 1024.1 0.2
16/10:30pm 5.4 -0.5 -2.2 58 2.7 NW 19 24 10 13 1023.9 1024.0 0.2
16/10:00pm 5.5 0.0 -1.9 59 2.7 WNW 17 30 9 16 1023.8 1023.9 0.2
16/09:30pm 5.8 0.4 -1.3 60 2.6 WNW 17 20 9 11 1023.7 1023.8 0.2
16/09:00pm 6.7 -0.6 -0.1 62 2.6 W 28 35 15 19 1023.2 1023.3 0.2
16/08:30pm 7.0 -1.0 0.2 62 2.7 W 32 37 17 20 1022.9 1023.0 0.2
16/08:00pm 7.1 -0.1 0.5 63 2.6 W 28 33 15 18 1022.7 1022.8 0.2
16/07:30pm 7.5 -0.5 0.7 62 2.7 WSW 32 37 17 20 1022.2 1022.3 0.2
16/07:00pm 7.8 -0.3 0.8 61 2.8 SW 33 39 18 21 1021.8 1021.9 0.2
16/06:30pm 7.6 0.0 0.3 60 2.9 SW 30 35 16 19 1021.1 1021.2 0.2
16/06:00pm 7.8 0.3 1.0 62 2.7 SW 30 37 16 20 1020.6 1020.7 0.2
16/05:30pm 8.3 0.4 1.0 60 2.9 SW 32 43 17 23 1020.0 1020.1 0.2
16/05:00pm 7.5 -0.2 2.4 70 2.1 SSW 32 39 17 21 1019.5 1019.6 0.2
16/04:30pm 8.4 0.7 -0.1 55 3.3 SW 30 37 16 20 1018.8 1018.8 0.2
16/04:00pm 8.8 0.1 -0.5 52 3.6 SW 35 44 19 24 1018.3 1018.3 0.2
16/03:30pm 8.7 -1.6 -0.9 51 3.7 SW 43 48 23 26 1017.9 1017.9 0.2
16/03:00pm 9.7 -0.1 -0.5 49 4.0 SW 41 50 22 27 1017.2 1017.2 0.2
16/02:30pm 9.5 -1.9 -2.4 43 4.5 SW 48 61 26 33 1016.8 1016.8 0.2
16/02:00pm 9.7 0.1 0.9 54 3.6 SW 41 63 22 34 1016.4 1016.4 0.2
16/01:41pm 9.7 -0.1 2.1 59 3.2 SW 43 63 23 34 1016.2 1016.2 0.2
16/01:35pm 9.3 0.1 1.2 57 3.3 WSW 39 52 21 28 1016.1 1016.1 0.2
16/01:30pm 9.6 1.7 2.5 61 3.0 WSW 33 43 18 23 1016.0 1016.0 0.2
16/01:00pm 9.1 0.5 2.7 64 2.7 WSW 37 46 20 25 1016.0 1016.0 0.2
16/12:30pm 8.1 -0.6 1.9 65 2.6 WSW 37 44 20 24 1015.7 1015.7 0.2
16/12:01pm 7.1 -3.8 1.6 68 2.2 WSW 48 67 26 36 1015.6 1015.6 0.2
16/12:00pm 7.0 -4.3 1.5 68 2.2 WSW 50 67 27 36 1015.6 1015.6 0.2
16/11:40am 6.2 -3.5 3.0 80 1.3 SW 43 54 23 29 1015.6 1015.6 0.2
16/11:30am 6.3 -3.6 2.8 78 1.4 SSW 44 54 24 29 1015.3 1015.3 0.0
16/11:21am 7.8 -1.2 2.3 68 2.3 WSW 39 50 21 27 1015.1 1015.1 0.0
16/11:00am 7.9 -1.0 3.0 71 2.1 W 39 46 21 25 1014.6 1014.6 0.0
16/10:30am 6.3 -2.4 2.0 74 1.7 WSW 37 46 20 25 1014.2 1014.2 0.0
16/10:00am 7.0 -2.2 1.5 68 2.2 WSW 39 63 21 34 1013.7 1013.7 0.0
16/09:58am 7.6 -0.8 1.7 66 2.4 W 35 57 19 31 1013.5 1013.5 0.0
16/09:30am 7.5 -0.3 2.0 68 2.3 W 32 39 17 21 1013.1 1013.1 0.0
16/09:00am 7.6 -0.9 2.9 72 2.0 WSW 37 44 20 24 1012.7 1012.7 0.8
16/08:39am 6.2 -3.7 2.5 77 1.5 SW 44 65 24 35 1012.5 1012.5 0.8
16/08:30am 6.5 -4.3 2.0 73 1.8 WSW 48 65 26 35 1012.1 1012.1 0.6
16/08:00am 7.1 -2.6 2.8 74 1.8 W 43 52 23 28 1011.1 1011.1 0.6
16/07:30am 6.8 -4.3 2.5 74 1.8 WSW 50 67 27 36 1010.5 1010.5 0.6
16/07:15am 7.3 -3.4 2.8 73 1.9 WSW 48 74 26 40 1010.0 1010.0 0.6
16/07:00am 7.5 -3.5 2.8 72 2.0 WSW 50 59 27 32 1009.7 1009.7 0.6
16/06:30am 7.8 -1.7 4.0 77 1.6 WSW 43 52 23 28 1008.7 1008.7 0.6
16/06:00am 7.3 -3.1 4.1 80 1.4 WSW 48 57 26 31 1007.5 1007.5 0.6
16/05:30am 7.1 -3.0 3.7 79 1.4 WSW 46 65 25 35 1006.6 1006.6 0.2
16/05:29am 7.0 -2.8 3.6 79 1.4 WSW 44 65 24 35 1006.4 1006.4 0.2
16/05:00am 7.4 -4.9 3.1 74 1.8 WSW 57 76 31 41 1006.0 1006.0 0.0
16/04:52am 7.7 -4.1 2.8 71 2.1 WSW 54 76 29 41 1005.6 1005.6 0.0
16/04:30am 8.8 -1.9 2.8 66 2.5 WSW 48 63 26 34 1004.7 1004.7 0.0
16/04:00am 8.8 -1.0 3.2 68 2.4 W 44 54 24 29 1003.9 1003.9 0.0
16/03:44am 9.1 0.8 2.4 63 2.8 WNW 35 59 19 32 1003.5 1003.5 0.0
16/03:30am 9.0 1.1 2.3 63 2.8 WNW 33 46 18 25 1003.4 1003.4 0.0
16/03:00am 9.2 1.4 1.9 60 3.1 NW 32 48 17 26 1002.7 1002.7 0.0
16/02:30am 9.6 2.6 2.0 59 3.2 WNW 28 43 15 23 1002.5 1002.5 0.0
16/02:00am 9.6 3.1 2.5 61 3.0 WNW 26 44 14 24 1002.8 1002.8 0.0
16/01:30am 9.5 3.4 2.6 62 2.9 WNW 24 35 13 19 1002.9 1002.9 0.0
16/01:00am 9.7 3.4 1.8 58 3.3 WNW 24 33 13 18 1003.2 1003.2 0.0
16/12:30am 9.8 2.9 2.6 61 3.1 WNW 28 35 15 19 1003.4 1003.4 0.0
16/12:00am 9.9 3.8 3.0 62 3.0 WNW 24 33 13 18 1003.9 1003.9 0.0
 
Date/Time
EST
Temp
°C
App
Temp
°C
Dew
Point
°C
Rel
Hum
%
Delta-T
°C
Wind Press
QNH
hPa
Press
MSL
hPa
Rain since
9am
mm
Dir  Spd
km/h
Gust
km/h
Spd
kts
Gust
kts
15/11:30pm 10.1 5.2 2.2 58 3.3 WNW 17 24 9 13 1003.9 1003.9 0.0
15/11:00pm 10.4 6.6 1.8 55 3.6 NW 11 19 6 10 1004.5 1004.5 0.0
15/10:30pm 10.1 6.0 2.5 59 3.2 WNW 13 17 7 9 1005.2 1005.2 0.0
15/10:00pm 11.2 5.5 2.8 56 3.7 W 22 32 12 17 1005.4 1005.4 0.0
15/09:30pm 10.4 8.0 5.2 70 2.4 NNW 7 17 4 9 1005.7 1005.7 0.0
15/09:00pm 11.1 9.0 6.6 74 2.1 N 7 9 4 5 1006.3 1006.3 0.0
15/08:30pm 10.6 8.3 7.3 80 1.6 NE 9 13 5 7 1006.4 1006.4 0.0
15/08:00pm 10.7 6.5 7.4 80 1.6 NNE 19 30 10 16 1006.8 1006.8 0.0
15/07:30pm 10.8 6.9 7.3 79 1.7 N 17 24 9 13 1007.0 1007.0 0.0
15/07:00pm 10.9 7.4 7.4 79 1.7 NNE 15 24 8 13 1006.6 1006.6 0.0
15/06:30pm 11.2 6.4 7.3 77 1.9 NE 22 33 12 18 1006.6 1006.6 0.0
15/06:00pm 11.4 5.0 6.9 74 2.1 NE 30 37 16 20 1006.4 1006.4 0.0
15/05:30pm 12.0 5.2 6.7 70 2.5 NE 32 39 17 21 1006.5 1006.5 0.0
15/05:00pm 12.9 6.9 7.1 68 2.8 NE 28 32 15 17 1006.5 1006.5 0.0
15/04:30pm 13.8 9.2 5.7 58 3.8 NE 19 24 10 13 1006.6 1006.6 0.0
15/04:00pm 14.4 11.9 3.8 49 4.8 SSW 6 7 3 4 1006.7 1006.7 0.0
15/03:30pm 15.1 12.0 1.6 40 5.9 SSW 7 9 4 5 1006.9 1006.9 0.0
15/03:00pm 15.3 12.6 3.8 46 5.3 SSW 7 9 4 5 1007.1 1007.1 0.0
15/02:30pm 15.4 13.2 5.3 51 4.8 SW 6 7 3 4 1007.4 1007.4 0.0
15/02:00pm 15.2 12.9 4.6 49 5.0 SW 6 7 3 4 1007.8 1007.8 0.0
15/01:30pm 14.6 12.0 3.1 46 5.2 SW 6 9 3 5 1007.9 1007.9 0.0
15/01:00pm 14.2 11.3 4.8 53 4.4 SW 9 9 5 5 1008.2 1008.2 0.0
15/12:30pm 14.0 10.6 5.9 58 3.8 SW 13 17 7 9 1008.7 1008.7 0.0
15/12:00pm 14.1 10.4 4.7 53 4.4 SW 13 17 7 9 1009.1 1009.1 0.0
15/11:30am 14.6 11.0 5.1 53 4.5 SSW 13 17 7 9 1009.4 1009.4 0.0
15/11:00am 13.4 9.0 4.6 55 4.1 SSW 17 19 9 10 1009.4 1009.4 0.0
15/10:30am 13.5 10.3 5.2 57 3.9 SW 11 15 6 8 1009.4 1009.4 0.0
15/10:00am 13.4 8.7 5.1 57 3.9 WSW 19 22 10 12 1009.6 1009.6 0.0
15/09:30am 12.9 7.9 4.6 57 3.8 WSW 20 28 11 15 1009.7 1009.7 0.0
15/09:00am 12.9 6.7 4.3 56 3.9 WSW 26 32 14 17 1009.8 1009.8 0.0
15/08:30am 12.8 6.2 4.3 56 3.9 WSW 28 35 15 19 1009.5 1009.5 0.0
15/08:00am 12.9 4.9 5.6 61 3.4 SW 37 43 20 23 1008.8 1008.8 0.0
15/07:30am 13.4 7.5 7.6 68 2.8 SW 28 37 15 20 1008.4 1008.4 0.0
15/07:00am 12.6 8.4 7.5 71 2.5 SW 19 20 10 11 1008.1 1008.1 0.0
15/06:30am 12.7 8.4 7.8 72 2.4 WSW 20 24 11 13 1007.7 1007.7 0.0
15/06:00am 13.6 8.8 7.4 66 3.0 W 22 26 12 14 1007.2 1007.2 0.0
15/05:30am 14.8 10.0 7.4 61 3.7 WNW 22 33 12 18 1006.8 1006.8 0.0
15/05:00am 14.2 9.4 7.3 63 3.4 WNW 22 32 12 17 1006.4 1006.4 0.0
15/04:30am 13.9 9.5 7.2 64 3.3 W 20 28 11 15 1006.5 1006.5 0.0
15/04:00am 13.9 9.3 6.7 62 3.5 WNW 20 32 11 17 1006.4 1006.4 0.0
15/03:30am 14.5 9.2 6.8 60 3.7 WNW 24 33 13 18 1006.5 1006.5 0.0
15/03:00am 14.5 9.6 6.8 60 3.8 WNW 22 33 12 18 1006.8 1006.8 0.0
15/02:30am 14.0 9.0 6.4 60 3.7 WNW 22 32 12 17 1006.6 1006.6 0.0
15/02:00am 13.9 9.2 6.0 59 3.8 NW 20 30 11 16 1007.2 1007.2 0.0
15/01:30am 14.0 9.2 5.4 56 4.0 NW 20 32 11 17 1007.7 1007.7 0.0
15/01:00am 14.3 8.5 4.6 52 4.5 NW 24 39 13 21 1007.7 1007.7 0.0
15/12:30am 14.6 9.5 2.8 45 5.3 NW 19 28 10 15 1007.7 1007.7 0.0
15/12:00am 14.7 8.9 0.2 37 6.1 NW 20 33 11 18 1008.3 1008.3 0.0
 
Date/Time
EST
Temp
°C
App
Temp
°C
Dew
Point
°C
Rel
Hum
%
Delta-T
°C
Wind Press
QNH
hPa
Press
MSL
hPa
Rain since
9am
mm
Dir  Spd
km/h
Gust
km/h
Spd
kts
Gust
kts
14/11:30pm 14.8 9.0 -1.3 33 6.6 WNW 19 28 10 15 1009.0 1009.0 0.0
14/11:00pm 14.9 9.3 -2.5 30 7.0 WNW 17 37 9 20 1009.2 1009.2 0.0
14/10:30pm 14.8 8.3 -2.6 30 6.9 W 22 33 12 18 1009.8 1009.8 0.0
14/10:00pm 15.1 7.8 -3.2 28 7.2 WNW 26 39 14 21 1010.5 1010.5 0.0
14/09:30pm 15.7 7.7 -2.7 28 7.4 WNW 30 52 16 28 1011.2 1011.2 0.0
14/09:21pm 16.0 8.0 -2.5 28 7.5 NW 30 50 16 27 1011.2 1011.2 0.0
14/09:00pm 16.1 9.2 -2.4 28 7.5 WNW 24 37 13 20 1011.6 1011.6 0.0
14/08:30pm 16.5 9.2 -2.5 27 7.7 NW 26 44 14 24 1011.4 1011.4 0.0
14/08:27pm 16.6 10.5 -2.5 27 7.8 NW 20 44 11 24 1011.4 1011.4 0.0
14/08:00pm 12.4 9.9 6.7 68 2.7 NNE 9 13 5 7 1011.4 1011.4 0.0
14/07:30pm 12.0 7.7 6.9 71 2.4 NE 19 24 10 13 1011.8 1011.8 0.0
14/07:00pm 12.5 9.3 6.8 68 2.7 NNE 13 17 7 9 1012.1 1012.1 0.0
14/06:30pm 15.7 11.3 0.3 35 6.6 NNW 13 20 7 11 1012.4 1012.4 0.0
14/06:00pm 12.2 9.4 6.9 70 2.5 NNE 11 17 6 9 1013.0 1013.0 0.0
14/05:30pm 12.3 9.1 6.8 69 2.6 NE 13 17 7 9 1013.2 1013.2 0.0
14/05:00pm 12.4 8.0 6.7 68 2.7 NE 19 26 10 14 1013.7 1013.7 0.0
14/04:30pm 13.4 9.4 6.5 63 3.3 NE 17 22 9 12 1014.1 1014.1 0.0
14/04:00pm 13.7 8.9 5.8 59 3.7 NE 20 30 11 16 1014.3 1014.3 0.0
14/03:30pm 14.2 9.7 6.8 61 3.6 NE 20 30 11 16 1014.9 1014.9 0.0
14/03:00pm 15.9 13.4 4.9 48 5.2 E 7 13 4 7 1015.5 1015.5 0.0
14/02:30pm 17.3 12.9 4.6 43 6.0 WNW 17 30 9 16 1015.6 1015.6 0.0
14/02:00pm 16.5 11.0 4.2 44 5.7 W 22 28 12 15 1016.0 1016.0 0.0
14/01:30pm 15.9 11.3 3.7 44 5.6 WNW 17 26 9 14 1016.3 1016.3 0.0
14/01:00pm 15.4 10.3 3.9 46 5.3 W 20 26 11 14 1016.4 1016.4 0.0
14/12:30pm 13.7 10.2 5.3 57 3.9 SW 13 17 7 9 1017.0 1017.0 0.0
14/12:00pm 13.2 10.4 6.8 65 3.1 WSW 11 13 6 7 1017.5 1017.5 0.0
14/11:30am 13.1 9.2 5.5 60 3.6 WSW 15 20 8 11 1018.1 1018.1 0.0
14/11:00am 12.8 7.3 5.7 62 3.3 WSW 24 28 13 15 1018.1 1018.1 0.0
14/10:30am 12.5 7.0 5.7 63 3.2 WSW 24 30 13 16 1018.1 1018.1 0.0
14/10:00am 12.1 6.5 5.5 64 3.1 WSW 24 30 13 16 1018.3 1018.3 0.0
14/09:30am 11.7 3.9 4.7 62 3.2 WSW 35 41 19 22 1018.4 1018.4 0.0
14/09:00am 11.5 4.2 5.6 67 2.7 WSW 33 37 18 20 1018.5 1018.5 0.8
14/08:48am 11.5 6.3 5.6 67 2.7 WSW 22 35 12 19 1018.7 1018.7 0.8
14/08:30am 11.1 8.2 6.3 72 2.2 WSW 11 15 6 8 1018.8 1018.8 0.8

Other formats

Comma delimited format used in spreadsheet applications
http://www.bom.gov.au/fwo/IDT60801/IDT60801.94951.axf

JavaScript Object Notation format (JSON) in row-major order
http://www.bom.gov.au/fwo/IDT60801/IDT60801.94951.json

Data quality

Most of these data are generated automatically and are frequently updated. Quality checks on data are not normally performed. It is possible for incorrect values to appear. Refer to information at About Latest Weather Observations and please check the disclaimer before using these data.